sensor_id;sensor_type;location;lat;lon;timestamp;P1;durP1;ratioP1;P2;durP2;ratioP2
6432;SDS011;3249;42.690;23.260;2022-09-09T00:04:20;14.73;;;13.47;;
6432;SDS011;3249;42.690;23.260;2022-09-09T00:09:47;13.87;;;12.67;;
6432;SDS011;3249;42.690;23.260;2022-09-09T00:14:56;15.43;;;13.83;;
6432;SDS011;3249;42.690;23.260;2022-09-09T00:17:38;15.17;;;13.53;;
6432;SDS011;3249;42.690;23.260;2022-09-09T00:20:16;14.57;;;13.17;;
6432;SDS011;3249;42.690;23.260;2022-09-09T00:23:12;15.30;;;13.73;;
6432;SDS011;3249;42.690;23.260;2022-09-09T00:25:49;15.10;;;13.60;;
6432;SDS011;3249;42.690;23.260;2022-09-09T00:28:39;15.23;;;13.40;;
6432;SDS011;3249;42.690;23.260;2022-09-09T00:31:13;18.90;;;15.27;;
6432;SDS011;3249;42.690;23.260;2022-09-09T00:33:41;18.57;;;14.27;;
6432;SDS011;3249;42.690;23.260;2022-09-09T00:36:15;16.37;;;14.63;;
6432;SDS011;3249;42.690;23.260;2022-09-09T00:38:47;16.57;;;14.87;;
6432;SDS011;3249;42.690;23.260;2022-09-09T00:44:07;15.63;;;14.07;;
6432;SDS011;3249;42.690;23.260;2022-09-09T00:47:04;17.13;;;15.53;;
6432;SDS011;3249;42.690;23.260;2022-09-09T00:49:59;17.67;;;15.80;;
6432;SDS011;3249;42.690;23.260;2022-09-09T00:57:52;16.53;;;13.90;;
6432;SDS011;3249;42.690;23.260;2022-09-09T01:00:25;16.97;;;15.27;;
6432;SDS011;3249;42.690;23.260;2022-09-09T01:14:19;16.23;;;14.63;;
6432;SDS011;3249;42.690;23.260;2022-09-09T01:16:56;16.23;;;13.90;;
6432;SDS011;3249;42.690;23.260;2022-09-09T01:19:36;16.00;;;14.40;;
6432;SDS011;3249;42.690;23.260;2022-09-09T01:22:13;15.20;;;13.80;;
6432;SDS011;3249;42.690;23.260;2022-09-09T01:27:49;17.73;;;14.20;;
6432;SDS011;3249;42.690;23.260;2022-09-09T01:30:18;15.90;;;14.20;;
6432;SDS011;3249;42.690;23.260;2022-09-09T01:32:45;15.90;;;14.10;;
6432;SDS011;3249;42.690;23.260;2022-09-09T01:38:17;16.23;;;14.83;;
6432;SDS011;3249;42.690;23.260;2022-09-09T01:40:43;15.73;;;14.10;;
6432;SDS011;3249;42.690;23.260;2022-09-09T01:43:09;14.57;;;13.27;;
6432;SDS011;3249;42.690;23.260;2022-09-09T01:45:35;15.70;;;14.13;;
6432;SDS011;3249;42.690;23.260;2022-09-09T01:48:00;15.80;;;14.30;;
6432;SDS011;3249;42.690;23.260;2022-09-09T01:50:27;15.80;;;14.23;;
6432;SDS011;3249;42.690;23.260;2022-09-09T01:52:55;16.30;;;14.60;;
6432;SDS011;3249;42.690;23.260;2022-09-09T01:55:28;16.53;;;14.77;;
6432;SDS011;3249;42.690;23.260;2022-09-09T02:00:52;16.10;;;14.40;;
6432;SDS011;3249;42.690;23.260;2022-09-09T02:03:28;16.30;;;14.80;;
6432;SDS011;3249;42.690;23.260;2022-09-09T02:13:35;14.80;;;13.30;;
6432;SDS011;3249;42.690;23.260;2022-09-09T02:21:20;25.37;;;17.27;;
6432;SDS011;3249;42.690;23.260;2022-09-09T02:23:48;23.40;;;16.67;;
6432;SDS011;3249;42.690;23.260;2022-09-09T02:26:17;20.07;;;15.83;;
6432;SDS011;3249;42.690;23.260;2022-09-09T02:28:47;20.93;;;16.47;;
6432;SDS011;3249;42.690;23.260;2022-09-09T02:31:16;19.53;;;16.60;;
6432;SDS011;3249;42.690;23.260;2022-09-09T02:33:45;17.03;;;15.33;;
6432;SDS011;3249;42.690;23.260;2022-09-09T02:36:16;15.47;;;13.83;;
6432;SDS011;3249;42.690;23.260;2022-09-09T02:38:45;15.90;;;14.60;;
6432;SDS011;3249;42.690;23.260;2022-09-09T02:41:17;16.73;;;15.13;;
6432;SDS011;3249;42.690;23.260;2022-09-09T02:43:45;15.17;;;13.77;;
6432;SDS011;3249;42.690;23.260;2022-09-09T02:49:26;16.07;;;14.57;;
6432;SDS011;3249;42.690;23.260;2022-09-09T02:52:02;16.63;;;15.23;;
6432;SDS011;3249;42.690;23.260;2022-09-09T02:54:32;15.37;;;13.97;;
6432;SDS011;3249;42.690;23.260;2022-09-09T02:57:21;16.13;;;14.50;;
6432;SDS011;3249;42.690;23.260;2022-09-09T02:59:50;18.17;;;16.20;;
6432;SDS011;3249;42.690;23.260;2022-09-09T03:02:17;16.53;;;15.00;;
6432;SDS011;3249;42.690;23.260;2022-09-09T03:04:43;22.33;;;16.80;;
6432;SDS011;3249;42.690;23.260;2022-09-09T03:07:09;17.13;;;15.53;;
6432;SDS011;3249;42.690;23.260;2022-09-09T03:09:37;22.20;;;16.83;;
6432;SDS011;3249;42.690;23.260;2022-09-09T03:12:03;17.77;;;16.07;;
6432;SDS011;3249;42.690;23.260;2022-09-09T03:14:29;16.90;;;15.10;;
6432;SDS011;3249;42.690;23.260;2022-09-09T03:16:55;19.07;;;16.50;;
6432;SDS011;3249;42.690;23.260;2022-09-09T03:19:23;20.03;;;14.90;;
6432;SDS011;3249;42.690;23.260;2022-09-09T03:21:49;17.37;;;15.00;;
6432;SDS011;3249;42.690;23.260;2022-09-09T03:24:15;18.07;;;15.37;;
6432;SDS011;3249;42.690;23.260;2022-09-09T03:26:41;19.97;;;15.53;;
6432;SDS011;3249;42.690;23.260;2022-09-09T03:29:09;19.23;;;15.43;;
6432;SDS011;3249;42.690;23.260;2022-09-09T03:31:37;18.83;;;15.37;;
6432;SDS011;3249;42.690;23.260;2022-09-09T03:34:03;17.23;;;14.80;;
6432;SDS011;3249;42.690;23.260;2022-09-09T03:36:28;20.00;;;15.77;;
6432;SDS011;3249;42.690;23.260;2022-09-09T03:38:54;17.80;;;15.73;;
6432;SDS011;3249;42.690;23.260;2022-09-09T03:41:20;24.23;;;16.03;;
6432;SDS011;3249;42.690;23.260;2022-09-09T03:43:48;18.67;;;15.27;;
6432;SDS011;3249;42.690;23.260;2022-09-09T03:46:18;25.50;;;16.93;;
6432;SDS011;3249;42.690;23.260;2022-09-09T03:48:44;18.60;;;16.40;;
6432;SDS011;3249;42.690;23.260;2022-09-09T03:51:10;21.20;;;16.27;;
6432;SDS011;3249;42.690;23.260;2022-09-09T03:53:35;18.93;;;16.03;;
6432;SDS011;3249;42.690;23.260;2022-09-09T03:56:03;19.20;;;16.33;;
6432;SDS011;3249;42.690;23.260;2022-09-09T03:58:31;29.57;;;17.40;;
6432;SDS011;3249;42.690;23.260;2022-09-09T04:00:59;25.53;;;16.23;;
6432;SDS011;3249;42.690;23.260;2022-09-09T04:03:26;17.80;;;15.90;;
6432;SDS011;3249;42.690;23.260;2022-09-09T04:05:52;24.77;;;17.17;;
6432;SDS011;3249;42.690;23.260;2022-09-09T04:08:18;18.83;;;15.50;;
6432;SDS011;3249;42.690;23.260;2022-09-09T04:10:45;26.00;;;16.43;;
6432;SDS011;3249;42.690;23.260;2022-09-09T04:13:15;31.70;;;23.03;;
6432;SDS011;3249;42.690;23.260;2022-09-09T04:15:41;30.10;;;20.87;;
6432;SDS011;3249;42.690;23.260;2022-09-09T04:18:07;24.20;;;18.07;;
6432;SDS011;3249;42.690;23.260;2022-09-09T04:20:32;20.73;;;17.70;;
6432;SDS011;3249;42.690;23.260;2022-09-09T04:22:59;28.40;;;17.43;;
6432;SDS011;3249;42.690;23.260;2022-09-09T04:25:24;27.93;;;17.90;;
6432;SDS011;3249;42.690;23.260;2022-09-09T04:27:56;26.73;;;17.70;;
6432;SDS011;3249;42.690;23.260;2022-09-09T04:30:23;35.57;;;19.40;;
6432;SDS011;3249;42.690;23.260;2022-09-09T04:32:50;27.73;;;18.33;;
6432;SDS011;3249;42.690;23.260;2022-09-09T04:35:15;20.93;;;17.50;;
6432;SDS011;3249;42.690;23.260;2022-09-09T04:37:41;19.97;;;17.97;;
6432;SDS011;3249;42.690;23.260;2022-09-09T04:40:06;24.37;;;17.60;;
6432;SDS011;3249;42.690;23.260;2022-09-09T04:42:38;21.80;;;17.67;;
6432;SDS011;3249;42.690;23.260;2022-09-09T04:45:04;26.03;;;18.20;;
6432;SDS011;3249;42.690;23.260;2022-09-09T04:47:31;25.10;;;19.40;;
6432;SDS011;3249;42.690;23.260;2022-09-09T04:49:57;32.53;;;20.20;;
6432;SDS011;3249;42.690;23.260;2022-09-09T04:52:23;32.10;;;21.70;;
6432;SDS011;3249;42.690;23.260;2022-09-09T04:54:49;33.23;;;23.27;;
6432;SDS011;3249;42.690;23.260;2022-09-09T04:57:14;23.93;;;18.20;;
6432;SDS011;3249;42.690;23.260;2022-09-09T04:59:39;33.93;;;19.60;;
6432;SDS011;3249;42.690;23.260;2022-09-09T05:02:05;24.47;;;20.30;;
6432;SDS011;3249;42.690;23.260;2022-09-09T05:04:31;26.17;;;21.27;;
6432;SDS011;3249;42.690;23.260;2022-09-09T05:06:56;30.73;;;20.17;;
6432;SDS011;3249;42.690;23.260;2022-09-09T05:09:22;29.23;;;19.50;;
6432;SDS011;3249;42.690;23.260;2022-09-09T05:11:47;25.43;;;19.07;;
6432;SDS011;3249;42.690;23.260;2022-09-09T05:14:12;27.37;;;18.33;;
6432;SDS011;3249;42.690;23.260;2022-09-09T05:16:39;24.10;;;18.40;;
6432;SDS011;3249;42.690;23.260;2022-09-09T05:19:05;27.30;;;18.57;;
6432;SDS011;3249;42.690;23.260;2022-09-09T05:21:33;18.97;;;16.03;;
6432;SDS011;3249;42.690;23.260;2022-09-09T05:23:58;21.27;;;17.67;;
6432;SDS011;3249;42.690;23.260;2022-09-09T05:26:25;22.83;;;16.97;;
6432;SDS011;3249;42.690;23.260;2022-09-09T05:28:51;22.80;;;17.77;;
6432;SDS011;3249;42.690;23.260;2022-09-09T05:31:17;28.43;;;19.97;;
6432;SDS011;3249;42.690;23.260;2022-09-09T05:33:44;26.10;;;23.40;;
6432;SDS011;3249;42.690;23.260;2022-09-09T05:36:14;29.70;;;26.37;;
6432;SDS011;3249;42.690;23.260;2022-09-09T05:38:41;27.17;;;24.13;;
6432;SDS011;3249;42.690;23.260;2022-09-09T05:41:08;31.50;;;23.27;;
6432;SDS011;3249;42.690;23.260;2022-09-09T05:43:36;25.60;;;21.80;;
6432;SDS011;3249;42.690;23.260;2022-09-09T05:46:05;26.83;;;20.60;;
6432;SDS011;3249;42.690;23.260;2022-09-09T05:48:34;31.27;;;22.20;;
6432;SDS011;3249;42.690;23.260;2022-09-09T05:51:04;29.27;;;24.77;;
6432;SDS011;3249;42.690;23.260;2022-09-09T05:53:34;27.80;;;23.40;;
6432;SDS011;3249;42.690;23.260;2022-09-09T05:56:00;28.30;;;25.30;;
6432;SDS011;3249;42.690;23.260;2022-09-09T05:58:28;29.63;;;25.20;;
6432;SDS011;3249;42.690;23.260;2022-09-09T06:01:17;31.07;;;25.07;;
6432;SDS011;3249;42.690;23.260;2022-09-09T06:03:44;32.63;;;25.47;;
6432;SDS011;3249;42.690;23.260;2022-09-09T06:06:12;24.77;;;21.87;;
6432;SDS011;3249;42.690;23.260;2022-09-09T06:08:40;27.43;;;22.50;;
6432;SDS011;3249;42.690;23.260;2022-09-09T06:11:18;26.27;;;21.03;;
6432;SDS011;3249;42.690;23.260;2022-09-09T06:13:46;27.30;;;20.90;;
6432;SDS011;3249;42.690;23.260;2022-09-09T06:16:13;20.57;;;18.50;;
6432;SDS011;3249;42.690;23.260;2022-09-09T06:18:40;20.40;;;18.43;;
6432;SDS011;3249;42.690;23.260;2022-09-09T06:21:07;18.37;;;16.57;;
6432;SDS011;3249;42.690;23.260;2022-09-09T06:23:40;23.43;;;18.07;;
6432;SDS011;3249;42.690;23.260;2022-09-09T06:26:07;22.63;;;18.73;;
6432;SDS011;3249;42.690;23.260;2022-09-09T06:28:35;37.57;;;29.20;;
6432;SDS011;3249;42.690;23.260;2022-09-09T06:31:02;23.93;;;21.40;;
6432;SDS011;3249;42.690;23.260;2022-09-09T06:33:33;27.33;;;22.03;;
6432;SDS011;3249;42.690;23.260;2022-09-09T06:36:00;25.67;;;21.57;;
6432;SDS011;3249;42.690;23.260;2022-09-09T06:38:26;27.07;;;24.00;;
6432;SDS011;3249;42.690;23.260;2022-09-09T06:40:56;21.93;;;19.83;;
6432;SDS011;3249;42.690;23.260;2022-09-09T06:43:23;23.17;;;20.80;;
6432;SDS011;3249;42.690;23.260;2022-09-09T06:45:56;24.53;;;21.47;;
6432;SDS011;3249;42.690;23.260;2022-09-09T06:48:22;20.07;;;15.13;;
6432;SDS011;3249;42.690;23.260;2022-09-09T06:50:47;18.47;;;16.60;;
6432;SDS011;3249;42.690;23.260;2022-09-09T06:53:17;23.30;;;15.87;;
6432;SDS011;3249;42.690;23.260;2022-09-09T06:55:44;18.83;;;15.70;;
6432;SDS011;3249;42.690;23.260;2022-09-09T06:58:10;18.57;;;15.23;;
6432;SDS011;3249;42.690;23.260;2022-09-09T07:00:36;21.73;;;15.33;;
6432;SDS011;3249;42.690;23.260;2022-09-09T07:03:03;23.83;;;16.10;;
6432;SDS011;3249;42.690;23.260;2022-09-09T07:05:29;17.57;;;15.80;;
6432;SDS011;3249;42.690;23.260;2022-09-09T07:07:54;27.60;;;16.30;;
6432;SDS011;3249;42.690;23.260;2022-09-09T07:10:20;23.33;;;16.60;;
6432;SDS011;3249;42.690;23.260;2022-09-09T07:12:49;18.70;;;15.43;;
6432;SDS011;3249;42.690;23.260;2022-09-09T07:15:16;18.13;;;15.77;;
6432;SDS011;3249;42.690;23.260;2022-09-09T07:17:43;16.97;;;15.27;;
6432;SDS011;3249;42.690;23.260;2022-09-09T07:20:09;25.73;;;17.50;;
6432;SDS011;3249;42.690;23.260;2022-09-09T07:22:35;17.87;;;16.10;;
6432;SDS011;3249;42.690;23.260;2022-09-09T07:25:00;18.73;;;14.80;;
6432;SDS011;3249;42.690;23.260;2022-09-09T07:27:27;17.27;;;13.73;;
6432;SDS011;3249;42.690;23.260;2022-09-09T07:29:52;20.57;;;13.73;;
6432;SDS011;3249;42.690;23.260;2022-09-09T07:32:19;22.87;;;14.03;;
6432;SDS011;3249;42.690;23.260;2022-09-09T07:34:45;16.83;;;13.53;;
6432;SDS011;3249;42.690;23.260;2022-09-09T07:37:12;23.90;;;14.23;;
6432;SDS011;3249;42.690;23.260;2022-09-09T07:39:38;19.50;;;14.00;;
6432;SDS011;3249;42.690;23.260;2022-09-09T07:42:04;15.83;;;13.47;;
6432;SDS011;3249;42.690;23.260;2022-09-09T07:44:30;19.03;;;14.53;;
6432;SDS011;3249;42.690;23.260;2022-09-09T07:46:57;19.43;;;15.27;;
6432;SDS011;3249;42.690;23.260;2022-09-09T07:49:22;20.13;;;14.50;;
6432;SDS011;3249;42.690;23.260;2022-09-09T07:51:52;15.93;;;14.37;;
6432;SDS011;3249;42.690;23.260;2022-09-09T07:54:18;16.07;;;14.47;;
6432;SDS011;3249;42.690;23.260;2022-09-09T07:56:48;19.50;;;14.53;;
6432;SDS011;3249;42.690;23.260;2022-09-09T07:59:14;14.67;;;13.13;;
6432;SDS011;3249;42.690;23.260;2022-09-09T08:01:45;14.47;;;13.00;;
6432;SDS011;3249;42.690;23.260;2022-09-09T08:04:22;14.57;;;13.20;;
6432;SDS011;3249;42.690;23.260;2022-09-09T08:06:51;15.00;;;13.43;;
6432;SDS011;3249;42.690;23.260;2022-09-09T08:09:19;14.60;;;12.97;;
6432;SDS011;3249;42.690;23.260;2022-09-09T08:11:44;14.73;;;12.77;;
6432;SDS011;3249;42.690;23.260;2022-09-09T08:14:10;14.00;;;12.47;;
6432;SDS011;3249;42.690;23.260;2022-09-09T08:16:38;20.50;;;12.63;;
6432;SDS011;3249;42.690;23.260;2022-09-09T08:19:08;16.80;;;11.93;;
6432;SDS011;3249;42.690;23.260;2022-09-09T08:21:35;12.80;;;11.40;;
6432;SDS011;3249;42.690;23.260;2022-09-09T08:24:02;14.90;;;11.23;;
6432;SDS011;3249;42.690;23.260;2022-09-09T08:26:37;12.70;;;10.20;;
6432;SDS011;3249;42.690;23.260;2022-09-09T08:29:10;14.63;;;11.67;;
6432;SDS011;3249;42.690;23.260;2022-09-09T08:31:37;12.97;;;11.57;;
6432;SDS011;3249;42.690;23.260;2022-09-09T08:34:05;15.10;;;10.73;;
6432;SDS011;3249;42.690;23.260;2022-09-09T08:36:33;12.43;;;10.30;;
6432;SDS011;3249;42.690;23.260;2022-09-09T08:39:01;11.10;;;9.83;;
6432;SDS011;3249;42.690;23.260;2022-09-09T08:42:17;13.90;;;9.87;;
6432;SDS011;3249;42.690;23.260;2022-09-09T08:55:22;13.33;;;10.23;;
6432;SDS011;3249;42.690;23.260;2022-09-09T08:57:54;14.20;;;9.97;;
6432;SDS011;3249;42.690;23.260;2022-09-09T09:00:21;12.97;;;10.57;;
6432;SDS011;3249;42.690;23.260;2022-09-09T09:03:01;16.03;;;11.17;;
6432;SDS011;3249;42.690;23.260;2022-09-09T09:05:33;17.47;;;11.03;;
6432;SDS011;3249;42.690;23.260;2022-09-09T09:11:03;12.90;;;10.73;;
6432;SDS011;3249;42.690;23.260;2022-09-09T09:13:44;14.07;;;10.30;;
6432;SDS011;3249;42.690;23.260;2022-09-09T09:16:32;17.00;;;11.60;;
6432;SDS011;3249;42.690;23.260;2022-09-09T09:19:03;11.10;;;10.00;;
6432;SDS011;3249;42.690;23.260;2022-09-09T09:21:39;13.00;;;10.67;;
6432;SDS011;3249;42.690;23.260;2022-09-09T09:24:32;17.00;;;9.80;;
6432;SDS011;3249;42.690;23.260;2022-09-09T09:27:16;10.83;;;9.73;;
6432;SDS011;3249;42.690;23.260;2022-09-09T09:29:48;11.23;;;9.97;;
6432;SDS011;3249;42.690;23.260;2022-09-09T09:32:16;14.30;;;9.77;;
6432;SDS011;3249;42.690;23.260;2022-09-09T09:34:49;13.17;;;9.60;;
6432;SDS011;3249;42.690;23.260;2022-09-09T09:37:31;11.60;;;9.60;;
6432;SDS011;3249;42.690;23.260;2022-09-09T09:40:13;15.10;;;10.80;;
6432;SDS011;3249;42.690;23.260;2022-09-09T09:42:53;14.30;;;9.90;;
6432;SDS011;3249;42.690;23.260;2022-09-09T09:45:28;10.57;;;9.47;;
6432;SDS011;3249;42.690;23.260;2022-09-09T09:50:30;10.70;;;8.87;;
6432;SDS011;3249;42.690;23.260;2022-09-09T09:52:57;11.53;;;9.13;;
6432;SDS011;3249;42.690;23.260;2022-09-09T09:55:26;9.60;;;8.60;;
6432;SDS011;3249;42.690;23.260;2022-09-09T09:58:00;15.90;;;13.63;;
6432;SDS011;3249;42.690;23.260;2022-09-09T10:00:27;9.87;;;8.87;;
6432;SDS011;3249;42.690;23.260;2022-09-09T10:02:52;10.83;;;8.37;;
6432;SDS011;3249;42.690;23.260;2022-09-09T10:05:28;10.30;;;9.03;;
6432;SDS011;3249;42.690;23.260;2022-09-09T10:13:15;9.27;;;8.33;;
6432;SDS011;3249;42.690;23.260;2022-09-09T10:15:49;9.63;;;8.87;;
6432;SDS011;3249;42.690;23.260;2022-09-09T10:18:25;9.33;;;8.37;;
6432;SDS011;3249;42.690;23.260;2022-09-09T10:24:05;10.17;;;9.03;;
6432;SDS011;3249;42.690;23.260;2022-09-09T10:26:40;16.33;;;9.97;;
6432;SDS011;3249;42.690;23.260;2022-09-09T10:40:26;12.00;;;10.20;;
6432;SDS011;3249;42.690;23.260;2022-09-09T10:43:35;12.07;;;10.77;;
6432;SDS011;3249;42.690;23.260;2022-09-09T10:51:22;11.53;;;10.33;;
6432;SDS011;3249;42.690;23.260;2022-09-09T10:54:01;10.53;;;9.03;;
6432;SDS011;3249;42.690;23.260;2022-09-09T10:56:48;11.83;;;9.47;;
6432;SDS011;3249;42.690;23.260;2022-09-09T10:59:23;11.73;;;9.77;;
6432;SDS011;3249;42.690;23.260;2022-09-09T11:04:32;13.63;;;10.40;;
6432;SDS011;3249;42.690;23.260;2022-09-09T11:07:12;12.93;;;9.87;;
6432;SDS011;3249;42.690;23.260;2022-09-09T11:09:47;18.97;;;10.03;;
6432;SDS011;3249;42.690;23.260;2022-09-09T11:12:18;11.67;;;10.23;;
6432;SDS011;3249;42.690;23.260;2022-09-09T11:14:54;15.07;;;9.57;;
6432;SDS011;3249;42.690;23.260;2022-09-09T11:17:29;10.10;;;9.20;;
6432;SDS011;3249;42.690;23.260;2022-09-09T11:20:05;14.77;;;10.43;;
6432;SDS011;3249;42.690;23.260;2022-09-09T11:38:52;10.70;;;8.73;;
6432;SDS011;3249;42.690;23.260;2022-09-09T11:41:34;19.03;;;9.27;;
6432;SDS011;3249;42.690;23.260;2022-09-09T11:44:08;13.30;;;8.97;;
6432;SDS011;3249;42.690;23.260;2022-09-09T11:46:36;10.67;;;9.60;;
6432;SDS011;3249;42.690;23.260;2022-09-09T11:49:05;11.07;;;9.07;;
6432;SDS011;3249;42.690;23.260;2022-09-09T11:51:32;14.80;;;9.37;;
6432;SDS011;3249;42.690;23.260;2022-09-09T11:53:59;9.07;;;8.27;;
6432;SDS011;3249;42.690;23.260;2022-09-09T11:56:48;21.27;;;9.93;;
6432;SDS011;3249;42.690;23.260;2022-09-09T11:59:21;11.17;;;9.27;;
6432;SDS011;3249;42.690;23.260;2022-09-09T12:04:49;11.00;;;9.90;;
6432;SDS011;3249;42.690;23.260;2022-09-09T12:12:42;13.37;;;9.67;;
6432;SDS011;3249;42.690;23.260;2022-09-09T12:17:40;11.13;;;8.87;;
6432;SDS011;3249;42.690;23.260;2022-09-09T12:25:48;11.17;;;7.90;;
6432;SDS011;3249;42.690;23.260;2022-09-09T12:28:17;12.80;;;8.40;;
6432;SDS011;3249;42.690;23.260;2022-09-09T12:33:43;17.33;;;9.00;;
6432;SDS011;3249;42.690;23.260;2022-09-09T12:36:16;14.00;;;6.83;;
6432;SDS011;3249;42.690;23.260;2022-09-09T12:38:44;9.67;;;6.90;;
6432;SDS011;3249;42.690;23.260;2022-09-09T12:43:45;17.53;;;7.00;;
6432;SDS011;3249;42.690;23.260;2022-09-09T12:46:14;9.67;;;7.20;;
6432;SDS011;3249;42.690;23.260;2022-09-09T12:48:48;10.27;;;6.50;;
6432;SDS011;3249;42.690;23.260;2022-09-09T12:51:18;8.70;;;6.73;;
6432;SDS011;3249;42.690;23.260;2022-09-09T12:53:50;8.90;;;7.20;;
6432;SDS011;3249;42.690;23.260;2022-09-09T12:56:19;8.57;;;6.90;;
6432;SDS011;3249;42.690;23.260;2022-09-09T12:58:48;10.67;;;6.63;;
6432;SDS011;3249;42.690;23.260;2022-09-09T13:03:52;12.00;;;7.03;;
6432;SDS011;3249;42.690;23.260;2022-09-09T13:08:54;11.37;;;7.47;;
6432;SDS011;3249;42.690;23.260;2022-09-09T13:11:22;8.07;;;6.53;;
6432;SDS011;3249;42.690;23.260;2022-09-09T13:14:13;12.23;;;7.50;;
6432;SDS011;3249;42.690;23.260;2022-09-09T13:16:53;9.37;;;7.17;;
6432;SDS011;3249;42.690;23.260;2022-09-09T13:19:21;10.97;;;7.47;;
6432;SDS011;3249;42.690;23.260;2022-09-09T13:21:47;14.87;;;7.40;;
6432;SDS011;3249;42.690;23.260;2022-09-09T13:24:32;11.47;;;6.37;;
6432;SDS011;3249;42.690;23.260;2022-09-09T13:27:00;9.50;;;6.40;;
6432;SDS011;3249;42.690;23.260;2022-09-09T13:29:27;12.30;;;6.63;;
6432;SDS011;3249;42.690;23.260;2022-09-09T13:31:54;10.23;;;7.37;;
6432;SDS011;3249;42.690;23.260;2022-09-09T13:34:31;13.23;;;6.73;;
6432;SDS011;3249;42.690;23.260;2022-09-09T13:36:59;9.30;;;7.40;;
6432;SDS011;3249;42.690;23.260;2022-09-09T13:39:27;9.20;;;7.43;;
6432;SDS011;3249;42.690;23.260;2022-09-09T13:41:53;7.60;;;6.77;;
6432;SDS011;3249;42.690;23.260;2022-09-09T13:44:24;19.73;;;7.63;;
6432;SDS011;3249;42.690;23.260;2022-09-09T13:49:28;7.57;;;6.53;;
6432;SDS011;3249;42.690;23.260;2022-09-09T13:52:11;8.63;;;6.80;;
6432;SDS011;3249;42.690;23.260;2022-09-09T13:54:41;8.13;;;6.10;;
6432;SDS011;3249;42.690;23.260;2022-09-09T13:57:17;9.73;;;6.97;;
6432;SDS011;3249;42.690;23.260;2022-09-09T13:59:45;11.33;;;7.07;;
6432;SDS011;3249;42.690;23.260;2022-09-09T14:02:11;11.33;;;7.40;;
6432;SDS011;3249;42.690;23.260;2022-09-09T14:04:37;12.33;;;7.20;;
6432;SDS011;3249;42.690;23.260;2022-09-09T14:07:03;15.03;;;8.00;;
6432;SDS011;3249;42.690;23.260;2022-09-09T14:09:28;11.53;;;7.90;;
6432;SDS011;3249;42.690;23.260;2022-09-09T14:11:54;11.23;;;8.40;;
6432;SDS011;3249;42.690;23.260;2022-09-09T14:14:22;17.70;;;8.07;;
6432;SDS011;3249;42.690;23.260;2022-09-09T14:16:48;14.43;;;7.53;;
6432;SDS011;3249;42.690;23.260;2022-09-09T14:19:13;12.77;;;7.63;;
6432;SDS011;3249;42.690;23.260;2022-09-09T14:21:39;10.93;;;7.60;;
6432;SDS011;3249;42.690;23.260;2022-09-09T14:24:04;16.23;;;8.33;;
6432;SDS011;3249;42.690;23.260;2022-09-09T14:26:30;10.70;;;8.53;;
6432;SDS011;3249;42.690;23.260;2022-09-09T14:28:56;9.03;;;8.10;;
6432;SDS011;3249;42.690;23.260;2022-09-09T14:31:24;16.47;;;8.43;;
6432;SDS011;3249;42.690;23.260;2022-09-09T14:33:50;14.27;;;8.07;;
6432;SDS011;3249;42.690;23.260;2022-09-09T14:36:16;12.23;;;8.17;;
6432;SDS011;3249;42.690;23.260;2022-09-09T14:38:41;10.10;;;8.40;;
6432;SDS011;3249;42.690;23.260;2022-09-09T14:41:14;14.33;;;9.20;;
6432;SDS011;3249;42.690;23.260;2022-09-09T14:43:44;17.83;;;9.53;;
6432;SDS011;3249;42.690;23.260;2022-09-09T14:46:11;12.50;;;9.53;;
6432;SDS011;3249;42.690;23.260;2022-09-09T14:48:39;12.53;;;8.87;;
6432;SDS011;3249;42.690;23.260;2022-09-09T14:51:12;18.70;;;9.77;;
6432;SDS011;3249;42.690;23.260;2022-09-09T14:53:40;13.07;;;9.57;;
6432;SDS011;3249;42.690;23.260;2022-09-09T14:56:11;12.07;;;9.33;;
6432;SDS011;3249;42.690;23.260;2022-09-09T14:58:36;12.03;;;9.43;;
6432;SDS011;3249;42.690;23.260;2022-09-09T15:01:07;16.87;;;9.67;;
6432;SDS011;3249;42.690;23.260;2022-09-09T15:03:37;11.07;;;8.90;;
6432;SDS011;3249;42.690;23.260;2022-09-09T15:06:07;14.50;;;9.63;;
6432;SDS011;3249;42.690;23.260;2022-09-09T15:08:34;9.93;;;8.87;;
6432;SDS011;3249;42.690;23.260;2022-09-09T15:11:03;20.40;;;10.53;;
6432;SDS011;3249;42.690;23.260;2022-09-09T15:13:29;14.53;;;9.70;;
6432;SDS011;3249;42.690;23.260;2022-09-09T15:15:55;16.83;;;9.97;;
6432;SDS011;3249;42.690;23.260;2022-09-09T15:18:21;18.27;;;9.80;;
6432;SDS011;3249;42.690;23.260;2022-09-09T15:20:46;12.37;;;9.00;;
6432;SDS011;3249;42.690;23.260;2022-09-09T15:23:13;13.10;;;9.03;;
6432;SDS011;3249;42.690;23.260;2022-09-09T15:25:38;13.57;;;8.40;;
6432;SDS011;3249;42.690;23.260;2022-09-09T15:28:14;10.37;;;7.93;;
6432;SDS011;3249;42.690;23.260;2022-09-09T15:30:40;10.27;;;7.73;;
6432;SDS011;3249;42.690;23.260;2022-09-09T15:33:07;14.13;;;9.27;;
6432;SDS011;3249;42.690;23.260;2022-09-09T15:35:33;10.37;;;9.33;;
6432;SDS011;3249;42.690;23.260;2022-09-09T15:38:01;16.27;;;9.60;;
6432;SDS011;3249;42.690;23.260;2022-09-09T15:40:28;16.60;;;10.03;;
6432;SDS011;3249;42.690;23.260;2022-09-09T15:42:53;11.30;;;8.50;;
6432;SDS011;3249;42.690;23.260;2022-09-09T15:45:18;12.13;;;8.60;;
6432;SDS011;3249;42.690;23.260;2022-09-09T15:47:46;12.90;;;8.67;;
6432;SDS011;3249;42.690;23.260;2022-09-09T15:50:12;11.27;;;7.20;;
6432;SDS011;3249;42.690;23.260;2022-09-09T15:52:37;7.67;;;7.03;;
6432;SDS011;3249;42.690;23.260;2022-09-09T15:55:03;8.17;;;6.73;;
6432;SDS011;3249;42.690;23.260;2022-09-09T15:57:29;14.63;;;8.10;;
6432;SDS011;3249;42.690;23.260;2022-09-09T15:59:54;15.27;;;8.23;;
6432;SDS011;3249;42.690;23.260;2022-09-09T16:02:19;10.37;;;7.90;;
6432;SDS011;3249;42.690;23.260;2022-09-09T16:04:45;14.43;;;8.17;;
6432;SDS011;3249;42.690;23.260;2022-09-09T16:07:10;11.27;;;8.43;;
6432;SDS011;3249;42.690;23.260;2022-09-09T16:09:36;13.77;;;8.13;;
6432;SDS011;3249;42.690;23.260;2022-09-09T16:12:02;12.40;;;7.57;;
6432;SDS011;3249;42.690;23.260;2022-09-09T16:14:34;10.40;;;7.53;;
6432;SDS011;3249;42.690;23.260;2022-09-09T16:17:01;13.70;;;9.10;;
6432;SDS011;3249;42.690;23.260;2022-09-09T16:19:27;10.93;;;8.00;;
6432;SDS011;3249;42.690;23.260;2022-09-09T16:21:53;42.67;;;21.63;;
6432;SDS011;3249;42.690;23.260;2022-09-09T16:24:19;19.93;;;12.57;;
6432;SDS011;3249;42.690;23.260;2022-09-09T16:26:47;20.20;;;9.93;;
6432;SDS011;3249;42.690;23.260;2022-09-09T16:29:14;25.47;;;10.73;;
6432;SDS011;3249;42.690;23.260;2022-09-09T16:31:41;18.87;;;9.63;;
6432;SDS011;3249;42.690;23.260;2022-09-09T16:34:07;37.90;;;20.90;;
6432;SDS011;3249;42.690;23.260;2022-09-09T16:36:34;26.67;;;13.70;;
6432;SDS011;3249;42.690;23.260;2022-09-09T16:39:03;20.63;;;11.53;;
6432;SDS011;3249;42.690;23.260;2022-09-09T16:41:30;26.47;;;12.30;;
6432;SDS011;3249;42.690;23.260;2022-09-09T16:43:57;22.53;;;11.60;;
6432;SDS011;3249;42.690;23.260;2022-09-09T16:46:24;16.60;;;10.17;;
6432;SDS011;3249;42.690;23.260;2022-09-09T16:48:52;16.27;;;10.03;;
6432;SDS011;3249;42.690;23.260;2022-09-09T16:53:52;35.63;;;22.27;;
6432;SDS011;3249;42.690;23.260;2022-09-09T16:56:20;20.50;;;12.90;;
6432;SDS011;3249;42.690;23.260;2022-09-09T16:59:06;13.37;;;10.73;;
6432;SDS011;3249;42.690;23.260;2022-09-09T17:01:34;26.17;;;18.37;;
6432;SDS011;3249;42.690;23.260;2022-09-09T17:04:06;20.73;;;12.13;;
6432;SDS011;3249;42.690;23.260;2022-09-09T17:06:33;19.43;;;13.07;;
6432;SDS011;3249;42.690;23.260;2022-09-09T17:09:00;14.60;;;10.80;;
6432;SDS011;3249;42.690;23.260;2022-09-09T17:11:28;20.27;;;13.07;;
6432;SDS011;3249;42.690;23.260;2022-09-09T17:13:55;24.67;;;14.30;;
6432;SDS011;3249;42.690;23.260;2022-09-09T17:16:24;21.53;;;11.70;;
6432;SDS011;3249;42.690;23.260;2022-09-09T17:18:52;23.10;;;13.50;;
6432;SDS011;3249;42.690;23.260;2022-09-09T17:21:19;20.60;;;13.37;;